Aérodrome :
LOGIN :

S'inscrire | Disclaimer

   EN    FR    IT 

 










Légende :    VFR   VFR Marginal   IFR   IFR Intensif   IFR Très Intensif
Visi : 
Plafond : 
>= 8 km
>= 3000ft
5 à 8 km
1000 à 3000 ft
1500m à 5 km
500 à 1000 ft
800 à 1500m
200 à 500 ft
< 800m
< 200 ft
Symboles :   Orages  Brouillard  Fortes neiges  Fortes précipitations  Vent > 20 kt
SIGMETs :   Divers  Orages  Givrage  Turbulence  Onde Orograph.  Cendres Volcan.






- Altitude de l'aérodrome : 364 ft


LFAQ - Albert Bray

DERNIER METAR :
  • 210300Z AUTO 06009KT 5000 -DZ BR OVC004 11/11 Q1008

METARs EXPIRÉS :
  • 210230Z AUTO 04012KT 6000 -RA OVC005/// ///TCU 10/10 Q1008
  • 210200Z AUTO 05013KT 9000 SCT005/// BKN010/// OVC014/// ///TCU 10/10 Q1008
  • 210130Z AUTO 05016KT 4400 -RA BR BKN005/// OVC010/// ///TCU 10/10 Q1008
  • 210100Z AUTO 06008KT 020V110 9000 -RA OVC005/// ///TCU 10/10 Q1008
  • 210030Z AUTO 03015KT 4900 -RA BR OVC005/// ///TCU 10/10 Q1008

Prévision TAF périmée.



MET'MAP, la Météo Aéronautique d'un coup d'oeil ! - Copyright ORBIFLY Décembre 2007 - Disclaimer

ORBIFLY MET'MAP TEAM :

Programmation & Développement : Alexandra Zaïnal
Conception & Développement : Baudouin d'Aumeries
Co-Programmation & Développement : Marc-Olivier Méhu
Soutien technique & logistique : Manuel Goepfert

Contact : metmap@orbifly.com




SOURCES & CREDITS :

   NOAA